sensor_id;sensor_type;location;lat;lon;timestamp;temperature;humidity
51557;DHT22;38766;53.194;5.532;2024-02-21T00:00:54;8.90;99.90
51557;DHT22;38766;53.194;5.532;2024-02-21T00:03:20;8.90;99.90
51557;DHT22;38766;53.194;5.532;2024-02-21T00:05:45;8.90;99.90
51557;DHT22;38766;53.194;5.532;2024-02-21T00:08:11;9.00;99.90
51557;DHT22;38766;53.194;5.532;2024-02-21T00:10:37;9.00;99.90
51557;DHT22;38766;53.194;5.532;2024-02-21T00:13:02;8.90;99.90
51557;DHT22;38766;53.194;5.532;2024-02-21T00:15:28;9.00;99.90
51557;DHT22;38766;53.194;5.532;2024-02-21T00:17:54;9.00;99.90
51557;DHT22;38766;53.194;5.532;2024-02-21T00:20:20;8.90;99.90
51557;DHT22;38766;53.194;5.532;2024-02-21T00:22:45;8.90;99.90
51557;DHT22;38766;53.194;5.532;2024-02-21T00:25:11;8.90;99.90
51557;DHT22;38766;53.194;5.532;2024-02-21T00:27:37;8.90;99.90
51557;DHT22;38766;53.194;5.532;2024-02-21T00:30:04;8.90;99.90
51557;DHT22;38766;53.194;5.532;2024-02-21T00:32:30;8.90;99.90
51557;DHT22;38766;53.194;5.532;2024-02-21T00:34:57;8.90;99.90
51557;DHT22;38766;53.194;5.532;2024-02-21T00:37:23;8.90;99.90
51557;DHT22;38766;53.194;5.532;2024-02-21T00:39:48;8.80;99.90
51557;DHT22;38766;53.194;5.532;2024-02-21T00:42:14;8.90;99.90
51557;DHT22;38766;53.194;5.532;2024-02-21T00:44:40;8.80;99.90
51557;DHT22;38766;53.194;5.532;2024-02-21T00:47:05;8.80;99.90
51557;DHT22;38766;53.194;5.532;2024-02-21T00:49:31;8.70;99.90
51557;DHT22;38766;53.194;5.532;2024-02-21T00:51:56;8.80;99.90
51557;DHT22;38766;53.194;5.532;2024-02-21T00:54:22;8.80;99.90
51557;DHT22;38766;53.194;5.532;2024-02-21T00:56:48;8.80;99.90
51557;DHT22;38766;53.194;5.532;2024-02-21T00:59:14;8.70;99.90
51557;DHT22;38766;53.194;5.532;2024-02-21T01:01:39;8.70;99.90
51557;DHT22;38766;53.194;5.532;2024-02-21T01:04:09;8.70;99.90
51557;DHT22;38766;53.194;5.532;2024-02-21T01:06:34;8.70;99.90
51557;DHT22;38766;53.194;5.532;2024-02-21T01:09:00;8.80;99.90
51557;DHT22;38766;53.194;5.532;2024-02-21T01:11:26;8.70;99.90
51557;DHT22;38766;53.194;5.532;2024-02-21T01:13:51;8.80;99.90
51557;DHT22;38766;53.194;5.532;2024-02-21T01:16:17;8.80;99.90
51557;DHT22;38766;53.194;5.532;2024-02-21T01:18:43;8.70;99.90
51557;DHT22;38766;53.194;5.532;2024-02-21T01:21:08;8.80;99.90
51557;DHT22;38766;53.194;5.532;2024-02-21T01:23:36;8.80;99.90
51557;DHT22;38766;53.194;5.532;2024-02-21T01:26:02;8.80;99.90
51557;DHT22;38766;53.194;5.532;2024-02-21T01:28:28;8.80;99.90
51557;DHT22;38766;53.194;5.532;2024-02-21T01:30:54;8.80;99.90
51557;DHT22;38766;53.194;5.532;2024-02-21T01:33:20;8.80;99.90
51557;DHT22;38766;53.194;5.532;2024-02-21T01:35:45;8.80;99.90
51557;DHT22;38766;53.194;5.532;2024-02-21T01:38:13;8.80;99.90
51557;DHT22;38766;53.194;5.532;2024-02-21T01:40:38;8.90;99.90
51557;DHT22;38766;53.194;5.532;2024-02-21T01:43:15;8.90;99.90
51557;DHT22;38766;53.194;5.532;2024-02-21T01:45:42;8.80;99.90
51557;DHT22;38766;53.194;5.532;2024-02-21T01:48:07;8.80;99.90
51557;DHT22;38766;53.194;5.532;2024-02-21T01:50:33;8.90;99.90
51557;DHT22;38766;53.194;5.532;2024-02-21T01:52:59;8.90;99.90
51557;DHT22;38766;53.194;5.532;2024-02-21T01:55:25;8.80;99.90
51557;DHT22;38766;53.194;5.532;2024-02-21T01:57:51;8.90;99.90
51557;DHT22;38766;53.194;5.532;2024-02-21T02:00:17;8.90;99.90
51557;DHT22;38766;53.194;5.532;2024-02-21T02:02:44;8.90;99.90
51557;DHT22;38766;53.194;5.532;2024-02-21T02:05:10;8.90;99.90
51557;DHT22;38766;53.194;5.532;2024-02-21T02:07:36;8.90;99.90
51557;DHT22;38766;53.194;5.532;2024-02-21T02:10:02;8.90;99.90
51557;DHT22;38766;53.194;5.532;2024-02-21T02:12:28;8.80;99.90
51557;DHT22;38766;53.194;5.532;2024-02-21T02:15:00;8.90;99.90
51557;DHT22;38766;53.194;5.532;2024-02-21T02:17:26;8.80;99.90
51557;DHT22;38766;53.194;5.532;2024-02-21T02:19:52;8.80;99.90
51557;DHT22;38766;53.194;5.532;2024-02-21T02:22:22;8.80;99.90
51557;DHT22;38766;53.194;5.532;2024-02-21T02:24:51;8.70;99.90
51557;DHT22;38766;53.194;5.532;2024-02-21T02:27:17;8.70;99.90
51557;DHT22;38766;53.194;5.532;2024-02-21T02:29:42;8.70;99.90
51557;DHT22;38766;53.194;5.532;2024-02-21T02:32:08;8.80;99.90
51557;DHT22;38766;53.194;5.532;2024-02-21T02:34:34;8.60;99.90
51557;DHT22;38766;53.194;5.532;2024-02-21T02:36:59;8.70;99.90
51557;DHT22;38766;53.194;5.532;2024-02-21T02:39:25;8.70;99.90
51557;DHT22;38766;53.194;5.532;2024-02-21T02:41:51;8.70;99.90
51557;DHT22;38766;53.194;5.532;2024-02-21T02:44:16;8.60;99.90
51557;DHT22;38766;53.194;5.532;2024-02-21T02:46:42;8.70;99.90
51557;DHT22;38766;53.194;5.532;2024-02-21T02:49:08;8.70;99.90
51557;DHT22;38766;53.194;5.532;2024-02-21T02:51:34;8.70;99.90
51557;DHT22;38766;53.194;5.532;2024-02-21T02:53:59;8.60;99.90
51557;DHT22;38766;53.194;5.532;2024-02-21T02:56:25;8.70;99.90
51557;DHT22;38766;53.194;5.532;2024-02-21T02:58:50;8.70;99.90
51557;DHT22;38766;53.194;5.532;2024-02-21T03:01:16;8.70;99.90
51557;DHT22;38766;53.194;5.532;2024-02-21T03:03:41;8.70;99.90
51557;DHT22;38766;53.194;5.532;2024-02-21T03:06:07;8.70;99.90
51557;DHT22;38766;53.194;5.532;2024-02-21T03:08:33;8.70;99.90
51557;DHT22;38766;53.194;5.532;2024-02-21T03:10:59;8.70;99.90
51557;DHT22;38766;53.194;5.532;2024-02-21T03:13:25;8.70;99.90
51557;DHT22;38766;53.194;5.532;2024-02-21T03:15:51;8.70;99.90
51557;DHT22;38766;53.194;5.532;2024-02-21T03:18:17;8.80;99.90
51557;DHT22;38766;53.194;5.532;2024-02-21T03:20:42;8.80;99.90
51557;DHT22;38766;53.194;5.532;2024-02-21T03:23:08;8.70;99.90
51557;DHT22;38766;53.194;5.532;2024-02-21T03:25:33;8.70;99.90
51557;DHT22;38766;53.194;5.532;2024-02-21T03:27:59;8.80;99.90
51557;DHT22;38766;53.194;5.532;2024-02-21T03:30:25;8.80;99.90
51557;DHT22;38766;53.194;5.532;2024-02-21T03:32:51;8.80;99.90
51557;DHT22;38766;53.194;5.532;2024-02-21T03:35:16;8.80;99.90
51557;DHT22;38766;53.194;5.532;2024-02-21T03:37:42;8.80;99.90
51557;DHT22;38766;53.194;5.532;2024-02-21T03:40:10;8.80;99.90
51557;DHT22;38766;53.194;5.532;2024-02-21T03:42:37;8.80;99.90
51557;DHT22;38766;53.194;5.532;2024-02-21T03:45:02;8.80;99.90
51557;DHT22;38766;53.194;5.532;2024-02-21T03:47:29;8.80;99.90
51557;DHT22;38766;53.194;5.532;2024-02-21T03:49:54;8.80;99.90
51557;DHT22;38766;53.194;5.532;2024-02-21T03:52:20;8.80;99.90
51557;DHT22;38766;53.194;5.532;2024-02-21T03:54:46;8.70;99.90
51557;DHT22;38766;53.194;5.532;2024-02-21T03:57:11;8.80;99.90
51557;DHT22;38766;53.194;5.532;2024-02-21T03:59:37;8.80;99.90
51557;DHT22;38766;53.194;5.532;2024-02-21T04:02:05;8.80;99.90
51557;DHT22;38766;53.194;5.532;2024-02-21T04:04:34;8.80;99.90
51557;DHT22;38766;53.194;5.532;2024-02-21T04:07:00;8.90;99.90
51557;DHT22;38766;53.194;5.532;2024-02-21T04:09:27;8.80;99.90
51557;DHT22;38766;53.194;5.532;2024-02-21T04:11:52;8.80;99.90
51557;DHT22;38766;53.194;5.532;2024-02-21T04:14:18;8.80;99.90
51557;DHT22;38766;53.194;5.532;2024-02-21T04:16:43;8.90;99.90
51557;DHT22;38766;53.194;5.532;2024-02-21T04:19:09;8.80;99.90
51557;DHT22;38766;53.194;5.532;2024-02-21T04:21:35;8.80;99.90
51557;DHT22;38766;53.194;5.532;2024-02-21T04:24:01;8.90;99.90
51557;DHT22;38766;53.194;5.532;2024-02-21T04:26:27;8.90;99.90
51557;DHT22;38766;53.194;5.532;2024-02-21T04:28:53;8.90;99.90
51557;DHT22;38766;53.194;5.532;2024-02-21T04:31:18;8.90;99.90
51557;DHT22;38766;53.194;5.532;2024-02-21T04:33:44;8.90;99.90
51557;DHT22;38766;53.194;5.532;2024-02-21T04:36:10;8.80;99.90
51557;DHT22;38766;53.194;5.532;2024-02-21T04:38:35;8.80;99.90
51557;DHT22;38766;53.194;5.532;2024-02-21T04:41:01;8.80;99.90
51557;DHT22;38766;53.194;5.532;2024-02-21T04:43:26;8.80;99.90
51557;DHT22;38766;53.194;5.532;2024-02-21T04:45:52;8.80;99.90
51557;DHT22;38766;53.194;5.532;2024-02-21T04:48:19;8.80;99.90
51557;DHT22;38766;53.194;5.532;2024-02-21T04:50:44;8.80;99.90
51557;DHT22;38766;53.194;5.532;2024-02-21T04:53:10;8.80;99.90
51557;DHT22;38766;53.194;5.532;2024-02-21T04:55:36;8.70;99.90
51557;DHT22;38766;53.194;5.532;2024-02-21T04:58:01;8.70;99.90
51557;DHT22;38766;53.194;5.532;2024-02-21T05:00:28;8.70;99.90
51557;DHT22;38766;53.194;5.532;2024-02-21T05:02:53;8.70;99.90
51557;DHT22;38766;53.194;5.532;2024-02-21T05:05:19;8.60;99.90
51557;DHT22;38766;53.194;5.532;2024-02-21T05:07:44;8.60;99.90
51557;DHT22;38766;53.194;5.532;2024-02-21T05:10:10;8.70;99.90
51557;DHT22;38766;53.194;5.532;2024-02-21T05:12:36;8.60;99.90
51557;DHT22;38766;53.194;5.532;2024-02-21T05:15:03;8.70;99.90
51557;DHT22;38766;53.194;5.532;2024-02-21T05:17:29;8.60;99.90
51557;DHT22;38766;53.194;5.532;2024-02-21T05:19:54;8.60;99.90
51557;DHT22;38766;53.194;5.532;2024-02-21T05:22:20;8.60;99.90
51557;DHT22;38766;53.194;5.532;2024-02-21T05:24:45;8.60;99.90
51557;DHT22;38766;53.194;5.532;2024-02-21T05:27:11;8.60;99.90
51557;DHT22;38766;53.194;5.532;2024-02-21T05:29:36;8.70;99.90
51557;DHT22;38766;53.194;5.532;2024-02-21T05:32:02;8.70;99.90
51557;DHT22;38766;53.194;5.532;2024-02-21T05:34:28;8.70;99.90
51557;DHT22;38766;53.194;5.532;2024-02-21T05:36:54;8.70;99.90
51557;DHT22;38766;53.194;5.532;2024-02-21T05:39:20;8.70;99.90
51557;DHT22;38766;53.194;5.532;2024-02-21T05:41:48;8.70;99.90
51557;DHT22;38766;53.194;5.532;2024-02-21T05:44:14;8.70;99.90
51557;DHT22;38766;53.194;5.532;2024-02-21T05:46:39;8.60;99.90
51557;DHT22;38766;53.194;5.532;2024-02-21T05:49:05;8.70;99.90
51557;DHT22;38766;53.194;5.532;2024-02-21T05:51:33;8.70;99.90
51557;DHT22;38766;53.194;5.532;2024-02-21T05:53:58;8.70;99.90
51557;DHT22;38766;53.194;5.532;2024-02-21T05:56:24;8.70;99.90
51557;DHT22;38766;53.194;5.532;2024-02-21T05:58:50;8.70;99.90
51557;DHT22;38766;53.194;5.532;2024-02-21T06:01:15;8.70;99.90
51557;DHT22;38766;53.194;5.532;2024-02-21T06:03:41;8.70;99.90
51557;DHT22;38766;53.194;5.532;2024-02-21T06:06:06;8.70;99.90
51557;DHT22;38766;53.194;5.532;2024-02-21T06:08:32;8.70;99.90
51557;DHT22;38766;53.194;5.532;2024-02-21T06:10:58;8.70;99.90
51557;DHT22;38766;53.194;5.532;2024-02-21T06:13:24;8.70;99.90
51557;DHT22;38766;53.194;5.532;2024-02-21T06:15:50;8.70;99.90
51557;DHT22;38766;53.194;5.532;2024-02-21T06:18:17;8.70;99.90
51557;DHT22;38766;53.194;5.532;2024-02-21T06:20:43;8.80;99.90
51557;DHT22;38766;53.194;5.532;2024-02-21T06:23:09;8.80;99.90
51557;DHT22;38766;53.194;5.532;2024-02-21T06:25:35;8.80;99.90
51557;DHT22;38766;53.194;5.532;2024-02-21T06:28:00;8.80;99.90
51557;DHT22;38766;53.194;5.532;2024-02-21T06:30:26;8.80;99.90
51557;DHT22;38766;53.194;5.532;2024-02-21T06:32:52;8.80;99.90
51557;DHT22;38766;53.194;5.532;2024-02-21T06:35:19;8.80;99.90
51557;DHT22;38766;53.194;5.532;2024-02-21T06:37:44;8.80;99.90
51557;DHT22;38766;53.194;5.532;2024-02-21T06:40:16;8.80;99.90
51557;DHT22;38766;53.194;5.532;2024-02-21T06:42:41;8.80;99.90
51557;DHT22;38766;53.194;5.532;2024-02-21T06:45:07;8.80;99.90
51557;DHT22;38766;53.194;5.532;2024-02-21T06:47:33;8.80;99.90
51557;DHT22;38766;53.194;5.532;2024-02-21T06:49:58;8.80;99.90
51557;DHT22;38766;53.194;5.532;2024-02-21T06:52:24;8.80;99.90
51557;DHT22;38766;53.194;5.532;2024-02-21T06:54:50;8.80;99.90
51557;DHT22;38766;53.194;5.532;2024-02-21T06:57:15;8.80;99.90
51557;DHT22;38766;53.194;5.532;2024-02-21T06:59:42;8.80;99.90
51557;DHT22;38766;53.194;5.532;2024-02-21T07:02:08;8.80;99.90
51557;DHT22;38766;53.194;5.532;2024-02-21T07:04:34;8.80;99.90
51557;DHT22;38766;53.194;5.532;2024-02-21T07:06:59;8.80;99.90
51557;DHT22;38766;53.194;5.532;2024-02-21T07:09:25;8.80;99.90
51557;DHT22;38766;53.194;5.532;2024-02-21T07:11:51;8.80;99.90
51557;DHT22;38766;53.194;5.532;2024-02-21T07:14:18;8.80;99.90
51557;DHT22;38766;53.194;5.532;2024-02-21T07:16:44;8.80;99.90
51557;DHT22;38766;53.194;5.532;2024-02-21T07:19:09;8.80;99.90
51557;DHT22;38766;53.194;5.532;2024-02-21T07:21:35;8.80;99.90
51557;DHT22;38766;53.194;5.532;2024-02-21T07:24:03;8.70;99.90
51557;DHT22;38766;53.194;5.532;2024-02-21T07:26:31;8.70;99.90
51557;DHT22;38766;53.194;5.532;2024-02-21T07:28:56;8.80;99.90
51557;DHT22;38766;53.194;5.532;2024-02-21T07:31:22;8.80;99.90
51557;DHT22;38766;53.194;5.532;2024-02-21T07:33:47;8.70;99.90
51557;DHT22;38766;53.194;5.532;2024-02-21T07:36:15;8.70;99.90
51557;DHT22;38766;53.194;5.532;2024-02-21T07:38:40;8.70;99.90
51557;DHT22;38766;53.194;5.532;2024-02-21T07:41:07;8.80;99.90
51557;DHT22;38766;53.194;5.532;2024-02-21T07:43:32;8.70;99.90
51557;DHT22;38766;53.194;5.532;2024-02-21T07:45:58;8.80;99.90
51557;DHT22;38766;53.194;5.532;2024-02-21T07:48:24;8.80;99.90
51557;DHT22;38766;53.194;5.532;2024-02-21T07:50:52;8.90;99.90
51557;DHT22;38766;53.194;5.532;2024-02-21T07:53:19;8.80;99.90
51557;DHT22;38766;53.194;5.532;2024-02-21T07:55:45;8.80;99.90
51557;DHT22;38766;53.194;5.532;2024-02-21T07:58:11;8.80;99.90
51557;DHT22;38766;53.194;5.532;2024-02-21T08:00:36;8.80;99.90
51557;DHT22;38766;53.194;5.532;2024-02-21T08:03:02;8.80;99.90
51557;DHT22;38766;53.194;5.532;2024-02-21T08:05:28;8.80;99.90
51557;DHT22;38766;53.194;5.532;2024-02-21T08:07:55;8.70;99.90
51557;DHT22;38766;53.194;5.532;2024-02-21T08:10:21;8.70;99.90
51557;DHT22;38766;53.194;5.532;2024-02-21T08:12:46;8.80;99.90
51557;DHT22;38766;53.194;5.532;2024-02-21T08:15:12;8.70;99.90
51557;DHT22;38766;53.194;5.532;2024-02-21T08:17:38;8.80;99.90
51557;DHT22;38766;53.194;5.532;2024-02-21T08:20:04;8.80;99.90
51557;DHT22;38766;53.194;5.532;2024-02-21T08:22:30;8.80;99.90
51557;DHT22;38766;53.194;5.532;2024-02-21T08:24:56;8.70;99.90
51557;DHT22;38766;53.194;5.532;2024-02-21T08:27:21;8.80;99.90
51557;DHT22;38766;53.194;5.532;2024-02-21T08:29:47;8.80;99.90
51557;DHT22;38766;53.194;5.532;2024-02-21T08:32:12;8.80;99.90
51557;DHT22;38766;53.194;5.532;2024-02-21T08:34:38;8.80;99.90
51557;DHT22;38766;53.194;5.532;2024-02-21T08:37:04;8.80;99.90
51557;DHT22;38766;53.194;5.532;2024-02-21T08:39:29;8.80;99.90
51557;DHT22;38766;53.194;5.532;2024-02-21T08:41:56;8.80;99.90
51557;DHT22;38766;53.194;5.532;2024-02-21T08:44:27;8.90;99.90
51557;DHT22;38766;53.194;5.532;2024-02-21T08:46:53;8.80;99.90
51557;DHT22;38766;53.194;5.532;2024-02-21T08:49:18;8.80;99.90
51557;DHT22;38766;53.194;5.532;2024-02-21T08:51:44;8.90;99.90
51557;DHT22;38766;53.194;5.532;2024-02-21T08:54:10;8.90;99.90
51557;DHT22;38766;53.194;5.532;2024-02-21T08:56:35;8.90;99.90
51557;DHT22;38766;53.194;5.532;2024-02-21T08:59:01;8.90;99.90
51557;DHT22;38766;53.194;5.532;2024-02-21T09:01:27;9.00;99.90
51557;DHT22;38766;53.194;5.532;2024-02-21T09:03:53;9.00;99.90
51557;DHT22;38766;53.194;5.532;2024-02-21T09:06:19;9.00;99.90
51557;DHT22;38766;53.194;5.532;2024-02-21T09:08:48;9.00;99.90
51557;DHT22;38766;53.194;5.532;2024-02-21T09:11:14;8.90;99.90
51557;DHT22;38766;53.194;5.532;2024-02-21T09:13:40;9.00;99.90
51557;DHT22;38766;53.194;5.532;2024-02-21T09:16:06;9.00;99.90
51557;DHT22;38766;53.194;5.532;2024-02-21T09:18:31;9.10;99.90
51557;DHT22;38766;53.194;5.532;2024-02-21T09:20:57;9.10;99.90
51557;DHT22;38766;53.194;5.532;2024-02-21T09:23:25;9.10;99.90
51557;DHT22;38766;53.194;5.532;2024-02-21T09:25:51;9.10;99.90
51557;DHT22;38766;53.194;5.532;2024-02-21T09:28:17;9.10;99.90
51557;DHT22;38766;53.194;5.532;2024-02-21T09:30:42;9.20;99.90
51557;DHT22;38766;53.194;5.532;2024-02-21T09:33:08;9.10;99.90
51557;DHT22;38766;53.194;5.532;2024-02-21T09:35:34;9.20;99.90
51557;DHT22;38766;53.194;5.532;2024-02-21T09:38:00;9.10;99.90
51557;DHT22;38766;53.194;5.532;2024-02-21T09:40:26;9.10;99.90
51557;DHT22;38766;53.194;5.532;2024-02-21T09:43:03;9.20;99.90
51557;DHT22;38766;53.194;5.532;2024-02-21T09:45:33;9.10;99.90
51557;DHT22;38766;53.194;5.532;2024-02-21T09:51:09;9.10;99.90
51557;DHT22;38766;53.194;5.532;2024-02-21T09:53:37;9.10;99.90
51557;DHT22;38766;53.194;5.532;2024-02-21T09:56:05;9.20;99.90
51557;DHT22;38766;53.194;5.532;2024-02-21T09:58:33;9.20;99.90
51557;DHT22;38766;53.194;5.532;2024-02-21T10:00:59;9.20;99.90
51557;DHT22;38766;53.194;5.532;2024-02-21T10:03:25;9.20;99.90
51557;DHT22;38766;53.194;5.532;2024-02-21T10:05:51;9.30;99.90
51557;DHT22;38766;53.194;5.532;2024-02-21T10:08:18;9.30;99.90
51557;DHT22;38766;53.194;5.532;2024-02-21T10:10:45;9.40;99.90
51557;DHT22;38766;53.194;5.532;2024-02-21T10:13:25;9.30;99.90
51557;DHT22;38766;53.194;5.532;2024-02-21T10:16:08;9.30;99.90
51557;DHT22;38766;53.194;5.532;2024-02-21T10:18:34;9.30;99.90
51557;DHT22;38766;53.194;5.532;2024-02-21T10:21:04;9.40;99.90
51557;DHT22;38766;53.194;5.532;2024-02-21T10:26:12;9.40;99.90
51557;DHT22;38766;53.194;5.532;2024-02-21T10:28:38;9.30;99.90
51557;DHT22;38766;53.194;5.532;2024-02-21T10:31:30;9.40;99.90
51557;DHT22;38766;53.194;5.532;2024-02-21T10:33:59;9.30;99.90
51557;DHT22;38766;53.194;5.532;2024-02-21T10:36:28;9.40;99.90
51557;DHT22;38766;53.194;5.532;2024-02-21T10:38:54;9.40;99.90
51557;DHT22;38766;53.194;5.532;2024-02-21T10:41:21;9.40;99.90
51557;DHT22;38766;53.194;5.532;2024-02-21T10:43:50;9.30;99.90
51557;DHT22;38766;53.194;5.532;2024-02-21T10:46:19;9.40;99.90
51557;DHT22;38766;53.194;5.532;2024-02-21T10:48:46;9.30;99.90
51557;DHT22;38766;53.194;5.532;2024-02-21T10:51:20;9.30;99.90
51557;DHT22;38766;53.194;5.532;2024-02-21T10:56:45;9.30;99.90
51557;DHT22;38766;53.194;5.532;2024-02-21T10:59:13;9.30;99.90
51557;DHT22;38766;53.194;5.532;2024-02-21T11:01:39;9.30;99.90
51557;DHT22;38766;53.194;5.532;2024-02-21T11:04:06;9.30;99.90
51557;DHT22;38766;53.194;5.532;2024-02-21T11:06:37;9.30;99.90
51557;DHT22;38766;53.194;5.532;2024-02-21T11:09:07;9.30;99.90
51557;DHT22;38766;53.194;5.532;2024-02-21T11:11:34;9.30;99.90
51557;DHT22;38766;53.194;5.532;2024-02-21T11:14:10;9.30;99.90
51557;DHT22;38766;53.194;5.532;2024-02-21T11:16:38;9.30;99.90
51557;DHT22;38766;53.194;5.532;2024-02-21T11:19:08;9.30;99.90
51557;DHT22;38766;53.194;5.532;2024-02-21T11:21:39;9.30;99.90
51557;DHT22;38766;53.194;5.532;2024-02-21T11:24:06;9.30;99.90
51557;DHT22;38766;53.194;5.532;2024-02-21T11:26:32;9.30;99.90
51557;DHT22;38766;53.194;5.532;2024-02-21T11:28:59;9.20;99.90
51557;DHT22;38766;53.194;5.532;2024-02-21T11:31:25;9.30;99.90
51557;DHT22;38766;53.194;5.532;2024-02-21T11:33:53;9.20;99.90
51557;DHT22;38766;53.194;5.532;2024-02-21T11:36:25;9.20;99.90
51557;DHT22;38766;53.194;5.532;2024-02-21T11:38:52;9.30;99.90
51557;DHT22;38766;53.194;5.532;2024-02-21T11:41:18;9.20;99.90
51557;DHT22;38766;53.194;5.532;2024-02-21T11:43:48;9.20;99.90
51557;DHT22;38766;53.194;5.532;2024-02-21T11:46:14;9.20;99.90
51557;DHT22;38766;53.194;5.532;2024-02-21T11:48:41;9.20;99.90
51557;DHT22;38766;53.194;5.532;2024-02-21T11:51:07;9.20;99.90
51557;DHT22;38766;53.194;5.532;2024-02-21T11:53:32;9.20;99.90
51557;DHT22;38766;53.194;5.532;2024-02-21T11:55:58;9.20;99.90
51557;DHT22;38766;53.194;5.532;2024-02-21T11:58:24;9.20;99.90
51557;DHT22;38766;53.194;5.532;2024-02-21T12:00:50;9.20;99.90
51557;DHT22;38766;53.194;5.532;2024-02-21T12:03:17;9.20;99.90
51557;DHT22;38766;53.194;5.532;2024-02-21T12:05:42;9.20;99.90
51557;DHT22;38766;53.194;5.532;2024-02-21T12:08:08;9.20;99.90
51557;DHT22;38766;53.194;5.532;2024-02-21T12:10:35;9.30;99.90
51557;DHT22;38766;53.194;5.532;2024-02-21T12:13:22;9.30;99.90
51557;DHT22;38766;53.194;5.532;2024-02-21T12:15:48;9.20;99.90
51557;DHT22;38766;53.194;5.532;2024-02-21T12:18:14;9.30;99.90
51557;DHT22;38766;53.194;5.532;2024-02-21T12:20:40;9.20;99.90
51557;DHT22;38766;53.194;5.532;2024-02-21T12:23:10;9.20;99.90
51557;DHT22;38766;53.194;5.532;2024-02-21T12:25:36;9.20;99.90
51557;DHT22;38766;53.194;5.532;2024-02-21T12:28:01;9.20;99.90
51557;DHT22;38766;53.194;5.532;2024-02-21T12:30:28;9.20;99.90
51557;DHT22;38766;53.194;5.532;2024-02-21T12:32:55;9.20;99.90
51557;DHT22;38766;53.194;5.532;2024-02-21T12:35:21;9.10;99.90
51557;DHT22;38766;53.194;5.532;2024-02-21T12:37:47;9.10;99.90
51557;DHT22;38766;53.194;5.532;2024-02-21T12:40:13;9.10;99.90
51557;DHT22;38766;53.194;5.532;2024-02-21T12:42:39;9.10;99.90
51557;DHT22;38766;53.194;5.532;2024-02-21T12:45:05;9.10;99.90
51557;DHT22;38766;53.194;5.532;2024-02-21T12:47:31;9.10;99.90
51557;DHT22;38766;53.194;5.532;2024-02-21T12:49:56;9.20;99.90
51557;DHT22;38766;53.194;5.532;2024-02-21T12:52:22;9.20;99.90
51557;DHT22;38766;53.194;5.532;2024-02-21T12:54:48;9.20;99.90
51557;DHT22;38766;53.194;5.532;2024-02-21T12:57:13;9.20;99.90
51557;DHT22;38766;53.194;5.532;2024-02-21T12:59:39;9.30;99.90
51557;DHT22;38766;53.194;5.532;2024-02-21T13:02:06;9.30;99.90
51557;DHT22;38766;53.194;5.532;2024-02-21T13:04:31;9.30;99.90
51557;DHT22;38766;53.194;5.532;2024-02-21T13:06:57;9.30;99.90
51557;DHT22;38766;53.194;5.532;2024-02-21T13:09:23;9.40;99.90
51557;DHT22;38766;53.194;5.532;2024-02-21T13:11:48;9.30;99.90
51557;DHT22;38766;53.194;5.532;2024-02-21T13:14:14;9.40;99.90
51557;DHT22;38766;53.194;5.532;2024-02-21T13:16:39;9.40;99.90
51557;DHT22;38766;53.194;5.532;2024-02-21T13:19:06;9.40;99.90
51557;DHT22;38766;53.194;5.532;2024-02-21T13:21:36;9.40;99.90
51557;DHT22;38766;53.194;5.532;2024-02-21T13:24:03;9.40;99.90
51557;DHT22;38766;53.194;5.532;2024-02-21T13:26:28;9.40;99.90
51557;DHT22;38766;53.194;5.532;2024-02-21T13:28:54;9.40;99.90
51557;DHT22;38766;53.194;5.532;2024-02-21T13:31:20;9.40;99.90
51557;DHT22;38766;53.194;5.532;2024-02-21T13:33:46;9.40;99.90
51557;DHT22;38766;53.194;5.532;2024-02-21T13:36:12;9.40;99.90
51557;DHT22;38766;53.194;5.532;2024-02-21T13:38:38;9.40;99.90
51557;DHT22;38766;53.194;5.532;2024-02-21T13:41:06;9.40;99.90
51557;DHT22;38766;53.194;5.532;2024-02-21T13:43:33;9.40;99.90
51557;DHT22;38766;53.194;5.532;2024-02-21T13:46:00;9.40;99.90
51557;DHT22;38766;53.194;5.532;2024-02-21T13:48:25;9.40;99.90
51557;DHT22;38766;53.194;5.532;2024-02-21T13:50:52;9.40;99.90
51557;DHT22;38766;53.194;5.532;2024-02-21T13:53:18;9.40;99.90
51557;DHT22;38766;53.194;5.532;2024-02-21T13:55:47;9.40;99.90
51557;DHT22;38766;53.194;5.532;2024-02-21T13:58:13;9.40;99.90
51557;DHT22;38766;53.194;5.532;2024-02-21T14:00:39;9.40;99.90
51557;DHT22;38766;53.194;5.532;2024-02-21T14:03:05;9.40;99.90
51557;DHT22;38766;53.194;5.532;2024-02-21T14:05:31;9.40;99.90
51557;DHT22;38766;53.194;5.532;2024-02-21T14:07:57;9.40;99.90
51557;DHT22;38766;53.194;5.532;2024-02-21T14:10:23;9.40;99.90
51557;DHT22;38766;53.194;5.532;2024-02-21T14:12:49;9.40;99.90
51557;DHT22;38766;53.194;5.532;2024-02-21T14:15:15;9.40;99.90
51557;DHT22;38766;53.194;5.532;2024-02-21T14:17:42;9.40;99.90
51557;DHT22;38766;53.194;5.532;2024-02-21T14:20:08;9.40;99.90
51557;DHT22;38766;53.194;5.532;2024-02-21T14:22:34;9.40;99.90
51557;DHT22;38766;53.194;5.532;2024-02-21T14:25:00;9.40;99.90
51557;DHT22;38766;53.194;5.532;2024-02-21T14:27:26;9.40;99.90
51557;DHT22;38766;53.194;5.532;2024-02-21T14:29:52;9.40;99.90
51557;DHT22;38766;53.194;5.532;2024-02-21T14:32:18;9.40;99.90
51557;DHT22;38766;53.194;5.532;2024-02-21T14:34:45;9.40;99.90
51557;DHT22;38766;53.194;5.532;2024-02-21T14:37:11;9.40;99.90
51557;DHT22;38766;53.194;5.532;2024-02-21T14:39:36;9.40;99.90
51557;DHT22;38766;53.194;5.532;2024-02-21T14:42:02;9.40;99.90
51557;DHT22;38766;53.194;5.532;2024-02-21T14:44:28;9.40;99.90
51557;DHT22;38766;53.194;5.532;2024-02-21T14:46:54;9.40;99.90
51557;DHT22;38766;53.194;5.532;2024-02-21T14:49:19;9.40;99.90
51557;DHT22;38766;53.194;5.532;2024-02-21T14:51:45;9.40;99.90
51557;DHT22;38766;53.194;5.532;2024-02-21T14:54:11;9.40;99.90
51557;DHT22;38766;53.194;5.532;2024-02-21T14:56:37;9.40;99.90
51557;DHT22;38766;53.194;5.532;2024-02-21T14:59:03;9.40;99.90
51557;DHT22;38766;53.194;5.532;2024-02-21T15:01:29;9.40;99.90
51557;DHT22;38766;53.194;5.532;2024-02-21T15:03:55;9.40;99.90
51557;DHT22;38766;53.194;5.532;2024-02-21T15:06:21;9.40;99.90
51557;DHT22;38766;53.194;5.532;2024-02-21T15:08:47;9.40;99.90
51557;DHT22;38766;53.194;5.532;2024-02-21T15:11:14;9.40;99.90
51557;DHT22;38766;53.194;5.532;2024-02-21T15:13:39;9.40;99.90
51557;DHT22;38766;53.194;5.532;2024-02-21T15:16:05;9.30;99.90
51557;DHT22;38766;53.194;5.532;2024-02-21T15:18:31;9.30;99.90
51557;DHT22;38766;53.194;5.532;2024-02-21T15:21:03;9.30;99.90
51557;DHT22;38766;53.194;5.532;2024-02-21T15:23:29;9.30;99.90
51557;DHT22;38766;53.194;5.532;2024-02-21T15:25:54;9.20;99.90
51557;DHT22;38766;53.194;5.532;2024-02-21T15:28:20;9.20;99.90
51557;DHT22;38766;53.194;5.532;2024-02-21T15:30:46;9.20;99.90
51557;DHT22;38766;53.194;5.532;2024-02-21T15:33:11;9.20;99.90
51557;DHT22;38766;53.194;5.532;2024-02-21T15:35:37;9.20;99.90
51557;DHT22;38766;53.194;5.532;2024-02-21T15:38:03;9.20;99.90
51557;DHT22;38766;53.194;5.532;2024-02-21T15:40:29;9.10;99.90
51557;DHT22;38766;53.194;5.532;2024-02-21T15:42:55;9.10;99.90
51557;DHT22;38766;53.194;5.532;2024-02-21T15:45:20;9.10;99.90
51557;DHT22;38766;53.194;5.532;2024-02-21T15:47:46;9.00;99.90